createdAt,value
2023-03-16T00:03:58.943Z,15.1
2023-03-16T00:09:52.680Z,15
2023-03-16T00:15:31.021Z,14.9
2023-03-16T00:20:54.045Z,14.8
2023-03-16T00:26:46.936Z,14.8
2023-03-16T00:32:10.130Z,14.9
2023-03-16T00:38:03.310Z,15
2023-03-16T00:43:55.763Z,15.1
2023-03-16T00:49:33.688Z,15.1
2023-03-16T00:55:12.132Z,15.1
2023-03-16T01:01:05.237Z,14.9
2023-03-16T01:06:42.591Z,14.8
2023-03-16T01:12:04.497Z,14.8
2023-03-16T01:17:41.615Z,14.6
2023-03-16T01:22:47.480Z,14.8
2023-03-16T01:28:39.604Z,14.9
2023-03-16T01:34:18.322Z,14.9
2023-03-16T01:40:10.939Z,15
2023-03-16T01:46:03.464Z,14.9
2023-03-16T01:51:11.847Z,14.9
2023-03-16T01:57:04.659Z,14.8
2023-03-16T02:02:27.279Z,14.7
2023-03-16T02:07:50.264Z,14.6
2023-03-16T02:13:44.072Z,14.6
2023-03-16T02:19:22.255Z,14.7
2023-03-16T02:25:15.397Z,14.8
2023-03-16T02:31:08.532Z,14.7
2023-03-16T02:37:02.215Z,14.8
2023-03-16T02:42:40.186Z,14.9
2023-03-16T02:48:18.511Z,14.9
2023-03-16T02:54:11.624Z,14.8
2023-03-16T02:59:49.499Z,14.8
2023-03-16T03:04:58.279Z,14.7
2023-03-16T03:10:50.476Z,14.6
2023-03-16T03:16:43.238Z,14.5
2023-03-16T03:22:35.334Z,14.5
2023-03-16T03:28:13.136Z,14.7
2023-03-16T03:34:05.849Z,14.8
2023-03-16T03:39:28.392Z,14.8
2023-03-16T03:45:05.849Z,14.7
2023-03-16T03:50:28.333Z,14.6
2023-03-16T03:55:34.627Z,14.5
2023-03-16T04:01:30.408Z,14.5
2023-03-16T04:07:24.241Z,14.4
2023-03-16T04:13:01.944Z,14.4
2023-03-16T04:18:54.832Z,14.5
2023-03-16T04:24:16.978Z,14.7
2023-03-16T04:29:40.084Z,14.8
2023-03-16T04:35:17.027Z,14.6
2023-03-16T04:40:55.181Z,14.6
2023-03-16T04:46:33.003Z,14.6
2023-03-16T04:52:10.850Z,14.4
2023-03-16T04:58:04.120Z,14.4
2023-03-16T05:03:59.646Z,14.3
2023-03-16T05:09:55.909Z,14.4
2023-03-16T05:15:01.948Z,14.6
2023-03-16T05:20:55.627Z,14.7
2023-03-16T05:26:48.220Z,14.6
2023-03-16T05:32:11.515Z,14.6
2023-03-16T05:37:52.590Z,14.5
2023-03-16T05:43:44.715Z,14.4
2023-03-16T05:49:23.539Z,14.3
2023-03-16T05:55:02.067Z,14.2
2023-03-16T06:00:55.493Z,14.3
2023-03-16T06:06:49.643Z,14.4
2023-03-16T06:12:43.196Z,14.5
2023-03-16T06:18:35.800Z,14.4
2023-03-16T06:24:27.547Z,14.4
2023-03-16T06:30:22.992Z,14.6
2023-03-16T06:36:18.471Z,14.6
2023-03-16T06:42:11.292Z,14.6
2023-03-16T06:47:51.955Z,14.6
2023-03-16T06:53:30.916Z,14.5
2023-03-16T06:59:23.274Z,14.4
2023-03-16T07:05:16.422Z,14.4
2023-03-16T07:11:09.386Z,14.3
2023-03-16T07:17:06.372Z,14.3
2023-03-16T07:23:00.621Z,14.5
2023-03-16T07:28:56.290Z,14.6
2023-03-16T07:35:08.155Z,14.6
2023-03-16T07:40:46.773Z,14.5
2023-03-16T07:46:23.655Z,14.4
2023-03-16T07:52:00.223Z,14.4
2023-03-16T07:58:11.088Z,14.3
2023-03-16T08:04:05.498Z,14.2
2023-03-16T08:09:57.878Z,14.3
2023-03-16T08:15:39.451Z,14.6
2023-03-16T08:21:32.046Z,14.5
2023-03-16T08:27:37.228Z,14.6
2023-03-16T08:33:16.510Z,14.5
2023-03-16T08:39:05.843Z,14.4
2023-03-16T08:44:44.277Z,14.3
2023-03-16T08:50:22.546Z,14.3
2023-03-16T08:56:26.244Z,14.4
2023-03-16T09:02:32.053Z,14.5
2023-03-16T09:08:32.986Z,14.4
2023-03-16T09:14:11.301Z,14.4
2023-03-16T09:20:19.477Z,14.3
2023-03-16T09:26:00.077Z,14.4
2023-03-16T09:31:56.412Z,14.4
2023-03-16T09:37:44.226Z,14.6
2023-03-16T09:43:32.647Z,14.8
2023-03-16T09:49:09.837Z,14.8
2023-03-16T09:54:25.187Z,14.8
2023-03-16T10:00:02.545Z,14.7
2023-03-16T10:05:56.003Z,14.6
2023-03-16T10:11:47.753Z,14.5
2023-03-16T10:17:41.387Z,14.6
2023-03-16T10:23:33.569Z,14.9
2023-03-16T10:29:10.286Z,14.9
2023-03-16T10:34:51.092Z,14.9
2023-03-16T10:40:44.413Z,14.8
2023-03-16T10:46:38.867Z,14.6
2023-03-16T10:52:32.445Z,14.6
2023-03-16T10:58:25.723Z,14.6
2023-03-16T11:04:18.924Z,14.8
2023-03-16T11:10:13.274Z,14.8
2023-03-16T11:16:30.570Z,14.9
2023-03-16T11:22:23.474Z,14.7
2023-03-16T11:28:15.818Z,14.4
2023-03-16T11:34:11.462Z,14.3
2023-03-16T11:40:05.699Z,14.3
2023-03-16T11:45:58.145Z,14.4
2023-03-16T11:51:50.798Z,14.6
2023-03-16T11:57:42.766Z,14.5
2023-03-16T12:03:40.964Z,14.5
2023-03-16T12:09:28.104Z,14.3
2023-03-16T12:15:21.096Z,14.2
2023-03-16T12:21:30.716Z,14.1
2023-03-16T12:27:24.120Z,14.3
2023-03-16T12:33:01.479Z,14.6
2023-03-16T12:38:53.988Z,14.5
2023-03-16T12:44:46.490Z,14.4
2023-03-16T12:50:23.964Z,14.4
2023-03-16T12:56:04.314Z,14.3
2023-03-16T13:01:26.417Z,14.3
2023-03-16T13:07:09.307Z,14.3
2023-03-16T13:12:47.827Z,14.4
2023-03-16T13:18:29.453Z,14.6
2023-03-16T13:24:38.145Z,14.5
2023-03-16T13:30:00.309Z,14.5
2023-03-16T13:35:07.466Z,14.4
2023-03-16T13:40:45.625Z,15.8
2023-03-16T13:46:26.975Z,16.6
2023-03-16T13:52:03.057Z,16.6
2023-03-16T13:57:40.682Z,16.3
2023-03-16T14:03:18.914Z,15.9
2023-03-16T14:08:56.131Z,15.6
2023-03-16T14:14:54.026Z,15.4
2023-03-16T14:20:57.490Z,15.3
2023-03-16T14:26:52.081Z,24.9
2023-03-16T14:32:45.518Z,36.3
2023-03-16T14:38:24.266Z,38.9
2023-03-16T14:44:17.754Z,39.8
2023-03-16T14:50:11.409Z,41.7
2023-03-16T14:55:48.898Z,43.9
2023-03-16T15:01:59.150Z,39.4
2023-03-16T15:07:54.397Z,42.3
2023-03-16T15:13:47.722Z,44.9
2023-03-16T15:19:25.492Z,43.1
2023-03-16T15:25:01.840Z,43.3
2023-03-16T15:30:55.669Z,42.9
2023-03-16T15:36:33.245Z,42.8
2023-03-16T15:42:37.909Z,41.8
2023-03-16T15:48:30.620Z,44.9
2023-03-16T15:54:37.758Z,41.2
2023-03-16T16:00:45.445Z,41.9
2023-03-16T16:06:22.524Z,46.3
2023-03-16T16:11:43.876Z,45.5
2023-03-16T16:17:50.823Z,44.5
2023-03-16T16:23:42.426Z,42.3
2023-03-16T16:29:19.124Z,43.9
2023-03-16T16:34:27.458Z,43.3
2023-03-16T16:40:01.327Z,38.4
2023-03-16T16:44:38.138Z,40.7
2023-03-16T16:50:00.683Z,42
2023-03-16T16:55:22.809Z,44.2
2023-03-16T17:01:11.509Z,42.3
2023-03-16T17:06:20.959Z,42.2
2023-03-16T17:11:43.466Z,43.9
2023-03-16T17:17:07.394Z,43.4
2023-03-16T17:23:00.253Z,38.9
2023-03-16T17:28:22.986Z,43.4
2023-03-16T17:34:01.150Z,41.3
2023-03-16T17:39:39.790Z,44.1
2023-03-16T17:45:23.469Z,40.8
2023-03-16T17:51:16.341Z,44.8
2023-03-16T17:57:09.253Z,39.2
2023-03-16T18:02:31.867Z,40.3
2023-03-16T18:08:27.636Z,44.7
2023-03-16T18:14:05.733Z,44.5
2023-03-16T18:19:13.342Z,42.1
2023-03-16T18:25:06.615Z,44.7
2023-03-16T18:31:01.861Z,41.1
2023-03-16T18:36:55.082Z,45.2
2023-03-16T18:42:33.005Z,43.1
2023-03-16T18:48:10.766Z,43.5
2023-03-16T18:54:04.147Z,41.5
2023-03-16T18:59:26.136Z,40.3
2023-03-16T19:04:32.495Z,39.6
2023-03-16T19:09:57.566Z,46.8
2023-03-16T19:15:35.713Z,42.4
2023-03-16T19:21:12.956Z,42.5
2023-03-16T19:26:51.017Z,41.1
2023-03-16T19:32:29.051Z,42
2023-03-16T19:38:20.277Z,42.1
2023-03-16T19:43:58.261Z,43.7
2023-03-16T19:49:51.441Z,40.7
2023-03-16T19:55:44.660Z,44.3
2023-03-16T20:01:37.398Z,41.3
2023-03-16T20:07:31.149Z,40.2
2023-03-16T20:13:09.237Z,39
2023-03-16T20:18:32.263Z,42.3
2023-03-16T20:23:54.108Z,38
2023-03-16T20:29:46.872Z,40.4
2023-03-16T20:35:40.117Z,39
2023-03-16T20:41:18.880Z,36.5
2023-03-16T20:46:57.154Z,37.3
2023-03-16T20:52:18.132Z,36.6
2023-03-16T20:57:55.810Z,34.9
2023-03-16T21:03:49.070Z,33
2023-03-16T21:09:49.877Z,31.3
2023-03-16T21:15:13.696Z,30
2023-03-16T21:21:06.931Z,29.2
2023-03-16T21:27:00.326Z,28.4
2023-03-16T21:32:53.869Z,27.9
2023-03-16T21:38:46.778Z,27.8
2023-03-16T21:44:41.594Z,27.3
2023-03-16T21:50:35.342Z,26.8
2023-03-16T21:56:14.511Z,26.3
2023-03-16T22:01:42.772Z,24.5
2023-03-16T22:07:58.876Z,23
2023-03-16T22:13:36.366Z,22
2023-03-16T22:19:29.595Z,21.3
2023-03-16T22:25:08.082Z,20.6
2023-03-16T22:30:45.009Z,20.1
2023-03-16T22:36:37.841Z,19.6
2023-03-16T22:42:30.301Z,19.2
2023-03-16T22:48:07.072Z,18.8
2023-03-16T22:54:00.245Z,18.4
2023-03-16T22:59:53.843Z,18.1
2023-03-16T23:05:48.097Z,18.1
2023-03-16T23:11:26.453Z,18
2023-03-16T23:17:20.882Z,17.8
2023-03-16T23:23:27.469Z,17.6
2023-03-16T23:29:11.845Z,17.3
2023-03-16T23:34:50.153Z,17.1
2023-03-16T23:40:27.805Z,16.9
2023-03-16T23:46:05.173Z,16.8
2023-03-16T23:51:43.240Z,16.6
2023-03-16T23:57:19.808Z,16.4
